sensor_id;sensor_type;location;lat;lon;timestamp;P1;durP1;ratioP1;P2;durP2;ratioP2
20443;SDS011;10381;53.730;10.010;2023-04-15T00:03:08;59.90;;;52.40;;
20443;SDS011;10381;53.730;10.010;2023-04-15T00:07:09;151.23;;;137.02;;
20443;SDS011;10381;53.730;10.010;2023-04-15T00:11:10;176.02;;;159.13;;
20443;SDS011;10381;53.730;10.010;2023-04-15T00:15:10;211.68;;;191.85;;
20443;SDS011;10381;53.730;10.010;2023-04-15T00:19:11;227.82;;;206.73;;
20443;SDS011;10381;53.730;10.010;2023-04-15T00:23:12;245.43;;;222.73;;
20443;SDS011;10381;53.730;10.010;2023-04-15T00:27:12;285.33;;;259.02;;
20443;SDS011;10381;53.730;10.010;2023-04-15T00:31:13;296.58;;;269.17;;
20443;SDS011;10381;53.730;10.010;2023-04-15T00:35:14;320.60;;;291.65;;
20443;SDS011;10381;53.730;10.010;2023-04-15T00:39:14;316.53;;;287.57;;
20443;SDS011;10381;53.730;10.010;2023-04-15T00:43:15;335.10;;;304.98;;
20443;SDS011;10381;53.730;10.010;2023-04-15T00:47:16;353.90;;;322.05;;
20443;SDS011;10381;53.730;10.010;2023-04-15T00:51:17;380.75;;;346.33;;
20443;SDS011;10381;53.730;10.010;2023-04-15T00:55:18;389.20;;;352.90;;
20443;SDS011;10381;53.730;10.010;2023-04-15T00:59:18;403.63;;;367.02;;
20443;SDS011;10381;53.730;10.010;2023-04-15T01:03:19;395.38;;;360.05;;
20443;SDS011;10381;53.730;10.010;2023-04-15T01:07:20;415.92;;;379.15;;
20443;SDS011;10381;53.730;10.010;2023-04-15T01:11:20;453.23;;;413.65;;
20443;SDS011;10381;53.730;10.010;2023-04-15T01:15:23;444.83;;;405.80;;
20443;SDS011;10381;53.730;10.010;2023-04-15T01:19:24;450.23;;;410.20;;
20443;SDS011;10381;53.730;10.010;2023-04-15T01:23:24;445.92;;;406.73;;
20443;SDS011;10381;53.730;10.010;2023-04-15T01:27:25;446.70;;;407.85;;
20443;SDS011;10381;53.730;10.010;2023-04-15T01:31:25;433.25;;;394.85;;
20443;SDS011;10381;53.730;10.010;2023-04-15T01:35:26;428.08;;;390.55;;
20443;SDS011;10381;53.730;10.010;2023-04-15T01:39:26;421.63;;;384.88;;
20443;SDS011;10381;53.730;10.010;2023-04-15T01:43:26;433.93;;;396.00;;
20443;SDS011;10381;53.730;10.010;2023-04-15T01:47:27;425.33;;;388.00;;
20443;SDS011;10381;53.730;10.010;2023-04-15T01:51:27;418.20;;;381.25;;
20443;SDS011;10381;53.730;10.010;2023-04-15T01:55:27;425.83;;;388.77;;
20443;SDS011;10381;53.730;10.010;2023-04-15T01:59:29;418.67;;;382.20;;
20443;SDS011;10381;53.730;10.010;2023-04-15T02:03:30;395.73;;;360.98;;
20443;SDS011;10381;53.730;10.010;2023-04-15T02:07:30;408.27;;;372.97;;
20443;SDS011;10381;53.730;10.010;2023-04-15T02:11:31;400.13;;;365.55;;
20443;SDS011;10381;53.730;10.010;2023-04-15T02:15:32;385.33;;;351.48;;
20443;SDS011;10381;53.730;10.010;2023-04-15T02:19:35;386.60;;;352.70;;
20443;SDS011;10381;53.730;10.010;2023-04-15T02:23:41;376.10;;;343.02;;
20443;SDS011;10381;53.730;10.010;2023-04-15T02:27:43;370.80;;;338.35;;
20443;SDS011;10381;53.730;10.010;2023-04-15T02:31:43;369.63;;;337.70;;
20443;SDS011;10381;53.730;10.010;2023-04-15T02:35:44;370.27;;;337.73;;
20443;SDS011;10381;53.730;10.010;2023-04-15T02:39:44;360.93;;;329.17;;
20443;SDS011;10381;53.730;10.010;2023-04-15T02:43:45;357.08;;;325.63;;
20443;SDS011;10381;53.730;10.010;2023-04-15T02:47:46;355.60;;;324.40;;
20443;SDS011;10381;53.730;10.010;2023-04-15T02:51:46;348.58;;;318.10;;
20443;SDS011;10381;53.730;10.010;2023-04-15T02:55:48;347.98;;;317.60;;
20443;SDS011;10381;53.730;10.010;2023-04-15T02:59:48;336.75;;;307.20;;
20443;SDS011;10381;53.730;10.010;2023-04-15T03:03:49;338.67;;;308.77;;
20443;SDS011;10381;53.730;10.010;2023-04-15T03:07:49;342.73;;;312.57;;
20443;SDS011;10381;53.730;10.010;2023-04-15T03:11:50;343.17;;;312.58;;
20443;SDS011;10381;53.730;10.010;2023-04-15T03:15:52;329.55;;;300.70;;
20443;SDS011;10381;53.730;10.010;2023-04-15T03:19:52;322.40;;;293.43;;
20443;SDS011;10381;53.730;10.010;2023-04-15T03:23:52;330.27;;;300.73;;
20443;SDS011;10381;53.730;10.010;2023-04-15T03:27:53;322.00;;;293.00;;
20443;SDS011;10381;53.730;10.010;2023-04-15T03:31:53;317.87;;;289.27;;
20443;SDS011;10381;53.730;10.010;2023-04-15T03:35:53;327.37;;;297.40;;
20443;SDS011;10381;53.730;10.010;2023-04-15T03:39:54;318.97;;;289.30;;
20443;SDS011;10381;53.730;10.010;2023-04-15T03:43:54;326.80;;;296.98;;
20443;SDS011;10381;53.730;10.010;2023-04-15T03:47:55;324.17;;;293.92;;
20443;SDS011;10381;53.730;10.010;2023-04-15T03:51:55;327.37;;;297.37;;
20443;SDS011;10381;53.730;10.010;2023-04-15T03:55:55;322.58;;;292.75;;
20443;SDS011;10381;53.730;10.010;2023-04-15T03:59:55;332.10;;;301.73;;
20443;SDS011;10381;53.730;10.010;2023-04-15T04:03:56;321.80;;;292.55;;
20443;SDS011;10381;53.730;10.010;2023-04-15T04:07:56;345.00;;;312.97;;
20443;SDS011;10381;53.730;10.010;2023-04-15T04:11:56;341.97;;;310.60;;
20443;SDS011;10381;53.730;10.010;2023-04-15T04:15:56;338.67;;;306.90;;
20443;SDS011;10381;53.730;10.010;2023-04-15T04:19:57;335.90;;;304.93;;
20443;SDS011;10381;53.730;10.010;2023-04-15T04:23:57;339.98;;;308.48;;
20443;SDS011;10381;53.730;10.010;2023-04-15T04:27:58;350.40;;;316.45;;
20443;SDS011;10381;53.730;10.010;2023-04-15T04:31:58;363.58;;;329.77;;
20443;SDS011;10381;53.730;10.010;2023-04-15T04:35:58;362.90;;;328.10;;
20443;SDS011;10381;53.730;10.010;2023-04-15T04:39:58;354.63;;;322.00;;
20443;SDS011;10381;53.730;10.010;2023-04-15T04:43:59;344.48;;;312.35;;
20443;SDS011;10381;53.730;10.010;2023-04-15T04:47:59;328.77;;;297.80;;
20443;SDS011;10381;53.730;10.010;2023-04-15T04:51:59;346.65;;;314.25;;
20443;SDS011;10381;53.730;10.010;2023-04-15T04:56:00;328.63;;;297.10;;
20443;SDS011;10381;53.730;10.010;2023-04-15T05:00:01;343.40;;;311.30;;
20443;SDS011;10381;53.730;10.010;2023-04-15T05:04:03;328.75;;;296.77;;
20443;SDS011;10381;53.730;10.010;2023-04-15T05:08:04;314.02;;;285.20;;
20443;SDS011;10381;53.730;10.010;2023-04-15T05:12:04;308.55;;;278.45;;
20443;SDS011;10381;53.730;10.010;2023-04-15T05:16:05;292.90;;;264.83;;
20443;SDS011;10381;53.730;10.010;2023-04-15T05:20:05;296.27;;;267.85;;
20443;SDS011;10381;53.730;10.010;2023-04-15T05:24:06;289.35;;;261.38;;
20443;SDS011;10381;53.730;10.010;2023-04-15T05:28:06;280.17;;;252.97;;
20443;SDS011;10381;53.730;10.010;2023-04-15T05:32:07;285.47;;;257.13;;
20443;SDS011;10381;53.730;10.010;2023-04-15T05:36:07;278.07;;;250.70;;
20443;SDS011;10381;53.730;10.010;2023-04-15T05:40:07;279.55;;;252.63;;
20443;SDS011;10381;53.730;10.010;2023-04-15T05:44:09;266.50;;;240.70;;
20443;SDS011;10381;53.730;10.010;2023-04-15T05:48:09;273.05;;;245.75;;
20443;SDS011;10381;53.730;10.010;2023-04-15T05:52:10;269.37;;;242.20;;
20443;SDS011;10381;53.730;10.010;2023-04-15T05:56:10;276.07;;;248.53;;
20443;SDS011;10381;53.730;10.010;2023-04-15T06:00:11;254.68;;;228.98;;
20443;SDS011;10381;53.730;10.010;2023-04-15T06:04:12;259.27;;;233.98;;
20443;SDS011;10381;53.730;10.010;2023-04-15T06:08:12;261.77;;;234.70;;
20443;SDS011;10381;53.730;10.010;2023-04-15T06:12:13;260.40;;;234.45;;
20443;SDS011;10381;53.730;10.010;2023-04-15T06:16:13;240.00;;;215.77;;
20443;SDS011;10381;53.730;10.010;2023-04-15T06:20:13;239.27;;;213.77;;
20443;SDS011;10381;53.730;10.010;2023-04-15T06:24:13;242.82;;;218.20;;
20443;SDS011;10381;53.730;10.010;2023-04-15T06:28:14;243.48;;;218.35;;
20443;SDS011;10381;53.730;10.010;2023-04-15T06:32:14;228.70;;;201.77;;
20443;SDS011;10381;53.730;10.010;2023-04-15T06:36:15;233.77;;;207.90;;
20443;SDS011;10381;53.730;10.010;2023-04-15T06:40:16;231.05;;;205.32;;
20443;SDS011;10381;53.730;10.010;2023-04-15T06:44:16;239.50;;;214.27;;
20443;SDS011;10381;53.730;10.010;2023-04-15T06:48:17;224.43;;;200.40;;
20443;SDS011;10381;53.730;10.010;2023-04-15T06:52:17;227.95;;;200.98;;
20443;SDS011;10381;53.730;10.010;2023-04-15T06:56:18;217.15;;;193.38;;
20443;SDS011;10381;53.730;10.010;2023-04-15T07:00:18;218.00;;;181.10;;
20443;SDS011;10381;53.730;10.010;2023-04-15T07:04:19;196.18;;;171.93;;
20443;SDS011;10381;53.730;10.010;2023-04-15T07:08:19;213.13;;;163.85;;
20443;SDS011;10381;53.730;10.010;2023-04-15T07:12:20;199.50;;;159.73;;
20443;SDS011;10381;53.730;10.010;2023-04-15T07:16:20;188.88;;;152.30;;
20443;SDS011;10381;53.730;10.010;2023-04-15T07:20:21;191.93;;;145.90;;
20443;SDS011;10381;53.730;10.010;2023-04-15T07:24:21;184.75;;;136.75;;
20443;SDS011;10381;53.730;10.010;2023-04-15T07:28:25;164.25;;;131.02;;
20443;SDS011;10381;53.730;10.010;2023-04-15T07:32:26;172.98;;;130.13;;
20443;SDS011;10381;53.730;10.010;2023-04-15T07:36:26;172.97;;;126.37;;
20443;SDS011;10381;53.730;10.010;2023-04-15T07:40:28;164.07;;;117.47;;
20443;SDS011;10381;53.730;10.010;2023-04-15T07:44:28;163.70;;;114.25;;
20443;SDS011;10381;53.730;10.010;2023-04-15T07:48:29;158.65;;;102.00;;
20443;SDS011;10381;53.730;10.010;2023-04-15T07:52:29;147.77;;;98.65;;
20443;SDS011;10381;53.730;10.010;2023-04-15T07:56:30;161.05;;;89.57;;
20443;SDS011;10381;53.730;10.010;2023-04-15T08:00:30;162.63;;;89.63;;
20443;SDS011;10381;53.730;10.010;2023-04-15T08:04:31;145.55;;;73.78;;
20443;SDS011;10381;53.730;10.010;2023-04-15T08:08:32;122.60;;;65.28;;
20443;SDS011;10381;53.730;10.010;2023-04-15T08:12:33;137.17;;;70.37;;
20443;SDS011;10381;53.730;10.010;2023-04-15T08:16:33;132.43;;;70.77;;
20443;SDS011;10381;53.730;10.010;2023-04-15T08:20:33;123.00;;;64.95;;
20443;SDS011;10381;53.730;10.010;2023-04-15T08:24:34;129.27;;;66.70;;
20443;SDS011;10381;53.730;10.010;2023-04-15T08:28:34;105.83;;;60.90;;
20443;SDS011;10381;53.730;10.010;2023-04-15T08:32:35;109.43;;;57.80;;
20443;SDS011;10381;53.730;10.010;2023-04-15T08:36:35;94.03;;;53.58;;
20443;SDS011;10381;53.730;10.010;2023-04-15T08:40:42;112.28;;;53.38;;
20443;SDS011;10381;53.730;10.010;2023-04-15T08:44:44;100.72;;;52.67;;
20443;SDS011;10381;53.730;10.010;2023-04-15T08:48:46;109.55;;;57.35;;
20443;SDS011;10381;53.730;10.010;2023-04-15T08:52:48;91.45;;;49.83;;
20443;SDS011;10381;53.730;10.010;2023-04-15T08:56:48;90.72;;;48.08;;
20443;SDS011;10381;53.730;10.010;2023-04-15T09:00:49;101.30;;;44.83;;
20443;SDS011;10381;53.730;10.010;2023-04-15T09:04:49;89.28;;;40.92;;
20443;SDS011;10381;53.730;10.010;2023-04-15T09:08:50;83.25;;;34.50;;
20443;SDS011;10381;53.730;10.010;2023-04-15T09:12:50;79.75;;;36.42;;
20443;SDS011;10381;53.730;10.010;2023-04-15T09:16:58;67.50;;;32.53;;
20443;SDS011;10381;53.730;10.010;2023-04-15T09:21:06;62.97;;;30.67;;
20443;SDS011;10381;53.730;10.010;2023-04-15T09:29:14;72.35;;;33.35;;
20443;SDS011;10381;53.730;10.010;2023-04-15T09:33:15;64.50;;;32.47;;
20443;SDS011;10381;53.730;10.010;2023-04-15T09:37:15;66.13;;;32.42;;
20443;SDS011;10381;53.730;10.010;2023-04-15T09:41:17;61.05;;;32.63;;
20443;SDS011;10381;53.730;10.010;2023-04-15T09:45:18;60.53;;;33.30;;
20443;SDS011;10381;53.730;10.010;2023-04-15T09:49:19;65.82;;;33.17;;
20443;SDS011;10381;53.730;10.010;2023-04-15T09:53:20;66.80;;;32.28;;
20443;SDS011;10381;53.730;10.010;2023-04-15T09:57:21;57.58;;;31.10;;
20443;SDS011;10381;53.730;10.010;2023-04-15T10:01:22;58.15;;;31.00;;
20443;SDS011;10381;53.730;10.010;2023-04-15T10:05:23;50.33;;;28.40;;
20443;SDS011;10381;53.730;10.010;2023-04-15T10:09:24;53.15;;;30.50;;
20443;SDS011;10381;53.730;10.010;2023-04-15T10:13:28;45.90;;;28.58;;
20443;SDS011;10381;53.730;10.010;2023-04-15T10:17:32;47.97;;;28.77;;
20443;SDS011;10381;53.730;10.010;2023-04-15T10:21:34;53.40;;;29.02;;
20443;SDS011;10381;53.730;10.010;2023-04-15T10:25:36;46.92;;;27.50;;
20443;SDS011;10381;53.730;10.010;2023-04-15T10:29:37;41.03;;;25.92;;
20443;SDS011;10381;53.730;10.010;2023-04-15T10:33:38;46.17;;;27.83;;
20443;SDS011;10381;53.730;10.010;2023-04-15T10:37:38;44.60;;;26.50;;
20443;SDS011;10381;53.730;10.010;2023-04-15T10:41:39;42.75;;;27.35;;
20443;SDS011;10381;53.730;10.010;2023-04-15T10:45:39;46.38;;;28.40;;
20443;SDS011;10381;53.730;10.010;2023-04-15T10:49:51;51.42;;;28.05;;
20443;SDS011;10381;53.730;10.010;2023-04-15T10:53:56;50.08;;;26.95;;
20443;SDS011;10381;53.730;10.010;2023-04-15T10:57:59;42.63;;;25.65;;
20443;SDS011;10381;53.730;10.010;2023-04-15T11:02:01;37.83;;;26.00;;
20443;SDS011;10381;53.730;10.010;2023-04-15T11:06:03;35.08;;;24.55;;
20443;SDS011;10381;53.730;10.010;2023-04-15T11:14:17;36.17;;;23.23;;
20443;SDS011;10381;53.730;10.010;2023-04-15T11:18:19;28.97;;;22.20;;
20443;SDS011;10381;53.730;10.010;2023-04-15T11:22:27;31.42;;;23.40;;
20443;SDS011;10381;53.730;10.010;2023-04-15T11:26:27;29.17;;;22.07;;
20443;SDS011;10381;53.730;10.010;2023-04-15T11:30:31;30.17;;;21.13;;
20443;SDS011;10381;53.730;10.010;2023-04-15T11:34:33;28.45;;;22.35;;
20443;SDS011;10381;53.730;10.010;2023-04-15T11:38:34;27.08;;;21.08;;
20443;SDS011;10381;53.730;10.010;2023-04-15T11:42:36;30.45;;;21.88;;
20443;SDS011;10381;53.730;10.010;2023-04-15T11:46:37;26.58;;;21.48;;
20443;SDS011;10381;53.730;10.010;2023-04-15T11:50:38;33.37;;;22.83;;
20443;SDS011;10381;53.730;10.010;2023-04-15T11:54:40;29.23;;;21.25;;
20443;SDS011;10381;53.730;10.010;2023-04-15T11:58:40;25.55;;;21.23;;
20443;SDS011;10381;53.730;10.010;2023-04-15T12:02:42;30.05;;;22.65;;
20443;SDS011;10381;53.730;10.010;2023-04-15T12:06:42;29.60;;;21.63;;
20443;SDS011;10381;53.730;10.010;2023-04-15T12:10:43;26.58;;;21.50;;
20443;SDS011;10381;53.730;10.010;2023-04-15T12:14:44;22.95;;;20.35;;
20443;SDS011;10381;53.730;10.010;2023-04-15T12:18:45;29.77;;;22.50;;
20443;SDS011;10381;53.730;10.010;2023-04-15T12:22:46;31.00;;;22.08;;
20443;SDS011;10381;53.730;10.010;2023-04-15T12:26:47;30.00;;;22.37;;
20443;SDS011;10381;53.730;10.010;2023-04-15T12:30:49;31.23;;;23.45;;
20443;SDS011;10381;53.730;10.010;2023-04-15T12:34:55;30.55;;;21.77;;
20443;SDS011;10381;53.730;10.010;2023-04-15T12:38:57;30.73;;;22.50;;
20443;SDS011;10381;53.730;10.010;2023-04-15T12:42:57;35.73;;;23.00;;
20443;SDS011;10381;53.730;10.010;2023-04-15T12:46:57;30.77;;;23.05;;
20443;SDS011;10381;53.730;10.010;2023-04-15T12:50:59;32.75;;;23.90;;
20443;SDS011;10381;53.730;10.010;2023-04-15T12:54:59;33.30;;;23.55;;
20443;SDS011;10381;53.730;10.010;2023-04-15T12:58:59;34.38;;;23.15;;
20443;SDS011;10381;53.730;10.010;2023-04-15T13:03:00;28.42;;;22.00;;
20443;SDS011;10381;53.730;10.010;2023-04-15T13:07:00;36.70;;;22.97;;
20443;SDS011;10381;53.730;10.010;2023-04-15T13:11:01;29.40;;;22.77;;
20443;SDS011;10381;53.730;10.010;2023-04-15T13:15:02;26.90;;;22.10;;
20443;SDS011;10381;53.730;10.010;2023-04-15T13:19:03;29.02;;;21.92;;
20443;SDS011;10381;53.730;10.010;2023-04-15T13:23:04;32.33;;;23.00;;
20443;SDS011;10381;53.730;10.010;2023-04-15T13:27:04;31.20;;;22.87;;
20443;SDS011;10381;53.730;10.010;2023-04-15T13:31:06;29.60;;;21.77;;
20443;SDS011;10381;53.730;10.010;2023-04-15T13:35:06;34.67;;;22.40;;
20443;SDS011;10381;53.730;10.010;2023-04-15T13:39:07;28.67;;;22.38;;
20443;SDS011;10381;53.730;10.010;2023-04-15T13:43:07;31.03;;;21.60;;
20443;SDS011;10381;53.730;10.010;2023-04-15T13:47:07;27.55;;;22.38;;
20443;SDS011;10381;53.730;10.010;2023-04-15T13:51:08;28.70;;;21.40;;
20443;SDS011;10381;53.730;10.010;2023-04-15T13:55:08;33.20;;;21.67;;
20443;SDS011;10381;53.730;10.010;2023-04-15T13:59:09;35.35;;;22.83;;
20443;SDS011;10381;53.730;10.010;2023-04-15T14:03:10;32.03;;;23.35;;
20443;SDS011;10381;53.730;10.010;2023-04-15T14:07:10;37.63;;;22.83;;
20443;SDS011;10381;53.730;10.010;2023-04-15T14:11:11;35.70;;;22.77;;
20443;SDS011;10381;53.730;10.010;2023-04-15T14:15:11;29.98;;;22.17;;
20443;SDS011;10381;53.730;10.010;2023-04-15T14:19:11;29.13;;;22.13;;
20443;SDS011;10381;53.730;10.010;2023-04-15T14:23:12;32.10;;;22.02;;
20443;SDS011;10381;53.730;10.010;2023-04-15T14:27:13;31.23;;;22.38;;
20443;SDS011;10381;53.730;10.010;2023-04-15T14:31:13;43.50;;;23.63;;
20443;SDS011;10381;53.730;10.010;2023-04-15T14:35:13;32.15;;;23.23;;
20443;SDS011;10381;53.730;10.010;2023-04-15T14:39:14;32.42;;;22.65;;
20443;SDS011;10381;53.730;10.010;2023-04-15T14:43:14;30.23;;;21.67;;
20443;SDS011;10381;53.730;10.010;2023-04-15T14:47:14;29.33;;;20.50;;
20443;SDS011;10381;53.730;10.010;2023-04-15T14:51:15;29.00;;;21.50;;
20443;SDS011;10381;53.730;10.010;2023-04-15T14:55:15;27.13;;;21.25;;
20443;SDS011;10381;53.730;10.010;2023-04-15T14:59:16;29.65;;;21.10;;
20443;SDS011;10381;53.730;10.010;2023-04-15T15:03:16;30.27;;;22.35;;
20443;SDS011;10381;53.730;10.010;2023-04-15T15:07:17;34.53;;;23.45;;
20443;SDS011;10381;53.730;10.010;2023-04-15T15:11:17;30.00;;;22.20;;
20443;SDS011;10381;53.730;10.010;2023-04-15T15:15:17;27.95;;;21.27;;
20443;SDS011;10381;53.730;10.010;2023-04-15T15:19:18;30.63;;;23.00;;
20443;SDS011;10381;53.730;10.010;2023-04-15T15:23:18;30.47;;;24.03;;
20443;SDS011;10381;53.730;10.010;2023-04-15T15:27:18;30.83;;;22.77;;
20443;SDS011;10381;53.730;10.010;2023-04-15T15:31:18;37.63;;;24.02;;
20443;SDS011;10381;53.730;10.010;2023-04-15T15:35:19;30.87;;;23.50;;
20443;SDS011;10381;53.730;10.010;2023-04-15T15:39:22;29.88;;;22.80;;
20443;SDS011;10381;53.730;10.010;2023-04-15T15:43:22;31.92;;;22.67;;
20443;SDS011;10381;53.730;10.010;2023-04-15T15:47:23;29.13;;;22.30;;
20443;SDS011;10381;53.730;10.010;2023-04-15T15:51:25;35.25;;;24.05;;
20443;SDS011;10381;53.730;10.010;2023-04-15T15:55:26;30.40;;;23.20;;
20443;SDS011;10381;53.730;10.010;2023-04-15T15:59:26;35.17;;;24.57;;
20443;SDS011;10381;53.730;10.010;2023-04-15T16:03:26;39.70;;;24.50;;
20443;SDS011;10381;53.730;10.010;2023-04-15T16:07:27;30.88;;;23.98;;
20443;SDS011;10381;53.730;10.010;2023-04-15T16:11:28;33.37;;;24.27;;
20443;SDS011;10381;53.730;10.010;2023-04-15T16:15:28;34.95;;;24.45;;
20443;SDS011;10381;53.730;10.010;2023-04-15T16:19:29;35.65;;;25.05;;
20443;SDS011;10381;53.730;10.010;2023-04-15T16:23:29;33.90;;;24.67;;
20443;SDS011;10381;53.730;10.010;2023-04-15T16:27:30;37.47;;;24.48;;
20443;SDS011;10381;53.730;10.010;2023-04-15T16:31:30;39.67;;;26.10;;
20443;SDS011;10381;53.730;10.010;2023-04-15T16:35:31;38.05;;;25.63;;
20443;SDS011;10381;53.730;10.010;2023-04-15T16:39:31;39.83;;;24.52;;
20443;SDS011;10381;53.730;10.010;2023-04-15T16:43:31;35.47;;;25.20;;
20443;SDS011;10381;53.730;10.010;2023-04-15T16:47:31;38.43;;;25.97;;
20443;SDS011;10381;53.730;10.010;2023-04-15T16:51:32;39.17;;;24.93;;
20443;SDS011;10381;53.730;10.010;2023-04-15T16:55:32;41.67;;;26.23;;
20443;SDS011;10381;53.730;10.010;2023-04-15T16:59:32;37.97;;;25.33;;
20443;SDS011;10381;53.730;10.010;2023-04-15T17:03:33;36.60;;;25.10;;
20443;SDS011;10381;53.730;10.010;2023-04-15T17:07:33;41.78;;;24.83;;
20443;SDS011;10381;53.730;10.010;2023-04-15T17:11:33;41.83;;;26.40;;
20443;SDS011;10381;53.730;10.010;2023-04-15T17:15:34;38.17;;;25.95;;
20443;SDS011;10381;53.730;10.010;2023-04-15T17:19:34;42.67;;;26.90;;
20443;SDS011;10381;53.730;10.010;2023-04-15T17:23:34;44.53;;;26.57;;
20443;SDS011;10381;53.730;10.010;2023-04-15T17:27:35;52.72;;;26.58;;
20443;SDS011;10381;53.730;10.010;2023-04-15T17:31:37;46.25;;;26.58;;
20443;SDS011;10381;53.730;10.010;2023-04-15T17:35:38;44.65;;;26.05;;
20443;SDS011;10381;53.730;10.010;2023-04-15T17:39:38;47.78;;;28.35;;
20443;SDS011;10381;53.730;10.010;2023-04-15T17:43:39;43.77;;;27.20;;
20443;SDS011;10381;53.730;10.010;2023-04-15T17:47:39;47.90;;;27.17;;
20443;SDS011;10381;53.730;10.010;2023-04-15T17:51:40;38.88;;;25.30;;
20443;SDS011;10381;53.730;10.010;2023-04-15T17:55:40;46.22;;;27.95;;
20443;SDS011;10381;53.730;10.010;2023-04-15T17:59:41;43.90;;;26.52;;
20443;SDS011;10381;53.730;10.010;2023-04-15T18:03:46;34.53;;;24.42;;
20443;SDS011;10381;53.730;10.010;2023-04-15T18:07:49;51.25;;;28.20;;
20443;SDS011;10381;53.730;10.010;2023-04-15T18:11:50;46.42;;;28.67;;
20443;SDS011;10381;53.730;10.010;2023-04-15T18:15:50;43.67;;;28.00;;
20443;SDS011;10381;53.730;10.010;2023-04-15T18:19:50;44.43;;;27.00;;
20443;SDS011;10381;53.730;10.010;2023-04-15T18:23:51;50.65;;;28.45;;
20443;SDS011;10381;53.730;10.010;2023-04-15T18:27:53;49.47;;;30.05;;
20443;SDS011;10381;53.730;10.010;2023-04-15T18:31:53;45.22;;;28.88;;
20443;SDS011;10381;53.730;10.010;2023-04-15T18:35:54;52.42;;;29.73;;
20443;SDS011;10381;53.730;10.010;2023-04-15T18:39:56;44.17;;;27.25;;
20443;SDS011;10381;53.730;10.010;2023-04-15T18:43:57;39.72;;;26.40;;
20443;SDS011;10381;53.730;10.010;2023-04-15T18:47:57;51.75;;;27.45;;
20443;SDS011;10381;53.730;10.010;2023-04-15T18:51:58;46.53;;;27.40;;
20443;SDS011;10381;53.730;10.010;2023-04-15T18:55:58;49.08;;;26.50;;
20443;SDS011;10381;53.730;10.010;2023-04-15T19:00:01;38.83;;;26.73;;
20443;SDS011;10381;53.730;10.010;2023-04-15T19:04:02;49.13;;;26.95;;
20443;SDS011;10381;53.730;10.010;2023-04-15T19:08:02;43.83;;;27.03;;
20443;SDS011;10381;53.730;10.010;2023-04-15T19:12:03;46.22;;;28.05;;
20443;SDS011;10381;53.730;10.010;2023-04-15T19:16:03;49.00;;;27.00;;
20443;SDS011;10381;53.730;10.010;2023-04-15T19:20:04;44.38;;;27.80;;
20443;SDS011;10381;53.730;10.010;2023-04-15T19:24:05;40.58;;;26.55;;
20443;SDS011;10381;53.730;10.010;2023-04-15T19:28:05;46.67;;;27.35;;
20443;SDS011;10381;53.730;10.010;2023-04-15T19:32:05;42.27;;;26.97;;
20443;SDS011;10381;53.730;10.010;2023-04-15T19:36:06;42.57;;;26.93;;
20443;SDS011;10381;53.730;10.010;2023-04-15T19:40:06;41.55;;;27.35;;
20443;SDS011;10381;53.730;10.010;2023-04-15T19:44:08;49.88;;;27.75;;
20443;SDS011;10381;53.730;10.010;2023-04-15T19:48:11;43.70;;;27.08;;
20443;SDS011;10381;53.730;10.010;2023-04-15T19:52:12;41.47;;;27.55;;
20443;SDS011;10381;53.730;10.010;2023-04-15T19:56:12;45.65;;;27.48;;
20443;SDS011;10381;53.730;10.010;2023-04-15T20:00:13;46.90;;;28.37;;
20443;SDS011;10381;53.730;10.010;2023-04-15T20:04:13;41.08;;;27.27;;
20443;SDS011;10381;53.730;10.010;2023-04-15T20:08:14;38.08;;;26.63;;
20443;SDS011;10381;53.730;10.010;2023-04-15T20:12:14;43.42;;;27.00;;
20443;SDS011;10381;53.730;10.010;2023-04-15T20:16:14;44.33;;;26.93;;
20443;SDS011;10381;53.730;10.010;2023-04-15T20:20:15;43.40;;;28.27;;
20443;SDS011;10381;53.730;10.010;2023-04-15T20:24:15;44.47;;;28.90;;
20443;SDS011;10381;53.730;10.010;2023-04-15T20:28:15;53.67;;;31.05;;
20443;SDS011;10381;53.730;10.010;2023-04-15T20:32:17;39.45;;;28.20;;
20443;SDS011;10381;53.730;10.010;2023-04-15T20:36:18;45.70;;;28.42;;
20443;SDS011;10381;53.730;10.010;2023-04-15T20:40:18;46.60;;;27.83;;
20443;SDS011;10381;53.730;10.010;2023-04-15T20:44:19;43.85;;;28.60;;
20443;SDS011;10381;53.730;10.010;2023-04-15T20:48:19;41.20;;;28.93;;
20443;SDS011;10381;53.730;10.010;2023-04-15T20:52:19;55.65;;;31.63;;
20443;SDS011;10381;53.730;10.010;2023-04-15T20:56:20;50.40;;;30.85;;
20443;SDS011;10381;53.730;10.010;2023-04-15T21:00:20;44.50;;;29.60;;
20443;SDS011;10381;53.730;10.010;2023-04-15T21:04:20;48.47;;;30.77;;
20443;SDS011;10381;53.730;10.010;2023-04-15T21:08:21;48.75;;;30.77;;
20443;SDS011;10381;53.730;10.010;2023-04-15T21:12:28;44.22;;;28.60;;
20443;SDS011;10381;53.730;10.010;2023-04-15T21:16:28;46.17;;;30.47;;
20443;SDS011;10381;53.730;10.010;2023-04-15T21:20:29;46.45;;;31.35;;
20443;SDS011;10381;53.730;10.010;2023-04-15T21:24:29;48.28;;;28.95;;
20443;SDS011;10381;53.730;10.010;2023-04-15T21:28:29;55.28;;;31.05;;
20443;SDS011;10381;53.730;10.010;2023-04-15T21:32:30;52.55;;;31.05;;
20443;SDS011;10381;53.730;10.010;2023-04-15T21:36:30;50.15;;;30.25;;
20443;SDS011;10381;53.730;10.010;2023-04-15T21:40:30;52.67;;;30.25;;
20443;SDS011;10381;53.730;10.010;2023-04-15T21:44:31;41.67;;;28.10;;
20443;SDS011;10381;53.730;10.010;2023-04-15T21:48:31;52.23;;;30.20;;
20443;SDS011;10381;53.730;10.010;2023-04-15T21:52:31;52.28;;;30.48;;
20443;SDS011;10381;53.730;10.010;2023-04-15T21:56:32;51.50;;;29.75;;
20443;SDS011;10381;53.730;10.010;2023-04-15T22:00:32;49.08;;;29.20;;
20443;SDS011;10381;53.730;10.010;2023-04-15T22:04:33;50.10;;;30.10;;
20443;SDS011;10381;53.730;10.010;2023-04-15T22:08:33;56.23;;;31.17;;
20443;SDS011;10381;53.730;10.010;2023-04-15T22:12:33;56.73;;;31.43;;
20443;SDS011;10381;53.730;10.010;2023-04-15T22:16:34;55.03;;;31.38;;
20443;SDS011;10381;53.730;10.010;2023-04-15T22:20:34;51.97;;;30.80;;
20443;SDS011;10381;53.730;10.010;2023-04-15T22:24:34;45.40;;;30.20;;
20443;SDS011;10381;53.730;10.010;2023-04-15T22:28:35;49.10;;;30.10;;
20443;SDS011;10381;53.730;10.010;2023-04-15T22:32:35;56.30;;;32.25;;
20443;SDS011;10381;53.730;10.010;2023-04-15T22:36:36;52.80;;;30.10;;
20443;SDS011;10381;53.730;10.010;2023-04-15T22:40:36;45.33;;;30.77;;
20443;SDS011;10381;53.730;10.010;2023-04-15T22:44:36;61.88;;;32.60;;
20443;SDS011;10381;53.730;10.010;2023-04-15T22:48:36;53.67;;;31.57;;
20443;SDS011;10381;53.730;10.010;2023-04-15T22:52:37;56.00;;;31.97;;
20443;SDS011;10381;53.730;10.010;2023-04-15T22:56:37;54.03;;;31.00;;
20443;SDS011;10381;53.730;10.010;2023-04-15T23:00:37;43.43;;;30.07;;
20443;SDS011;10381;53.730;10.010;2023-04-15T23:04:38;59.05;;;31.45;;